createdAt,value
2022-11-15T00:01:16.220Z,1.00
2022-11-15T00:03:18.377Z,0.52
2022-11-15T00:05:19.813Z,0.65
2022-11-15T00:07:48.210Z,0.70
2022-11-15T00:09:45.970Z,1.30
2022-11-15T00:11:47.669Z,2.15
2022-11-15T00:13:49.084Z,0.88
2022-11-15T00:15:50.641Z,0.45
2022-11-15T00:17:52.133Z,0.60
2022-11-15T00:19:53.594Z,1.55
2022-11-15T00:21:54.993Z,0.80
2022-11-15T00:23:56.459Z,0.98
2022-11-15T00:25:58.788Z,0.98
2022-11-15T00:28:00.516Z,0.68
2022-11-15T00:30:02.059Z,0.68
2022-11-15T00:32:04.324Z,0.80
2022-11-15T00:34:05.781Z,1.10
2022-11-15T00:36:08.473Z,0.63
2022-11-15T00:38:09.866Z,0.70
2022-11-15T00:40:11.756Z,0.52
2022-11-15T00:42:13.173Z,0.90
2022-11-15T00:44:14.604Z,0.80
2022-11-15T00:46:16.305Z,1.00
2022-11-15T00:48:17.716Z,1.30
2022-11-15T00:50:19.578Z,1.88
2022-11-15T00:52:20.985Z,0.70
2022-11-15T00:54:22.377Z,1.20
2022-11-15T00:56:23.817Z,1.35
2022-11-15T00:58:25.289Z,0.70
2022-11-15T01:00:26.738Z,1.15
2022-11-15T01:02:29.066Z,1.23
2022-11-15T01:04:30.473Z,1.00
2022-11-15T01:06:32.123Z,1.25
2022-11-15T01:08:34.032Z,1.23
2022-11-15T01:10:35.482Z,1.83
2022-11-15T01:12:37.181Z,1.40
2022-11-15T01:14:38.633Z,1.40
2022-11-15T01:16:40.101Z,1.30
2022-11-15T01:18:42.193Z,2.20
2022-11-15T01:20:43.819Z,1.05
2022-11-15T01:22:45.352Z,1.38
2022-11-15T01:24:46.752Z,1.10
2022-11-15T01:26:48.197Z,2.30
2022-11-15T01:28:49.902Z,1.23
2022-11-15T01:30:51.307Z,1.25
2022-11-15T01:32:52.714Z,1.10
2022-11-15T01:34:54.154Z,1.10
2022-11-15T01:36:55.580Z,0.68
2022-11-15T01:38:57.653Z,2.10
2022-11-15T01:40:59.050Z,1.40
2022-11-15T01:43:00.738Z,1.98
2022-11-15T01:45:02.197Z,1.52
2022-11-15T01:47:06.494Z,1.40
2022-11-15T01:49:13.578Z,1.23
2022-11-15T01:51:18.306Z,1.65
2022-11-15T01:53:24.034Z,1.83
2022-11-15T01:55:27.859Z,1.70
2022-11-15T01:57:30.743Z,1.23
2022-11-15T01:59:34.229Z,1.23
2022-11-15T02:01:37.146Z,1.73
2022-11-15T02:04:03.675Z,1.35
2022-11-15T02:06:06.932Z,1.00
2022-11-15T02:08:21.642Z,1.33
2022-11-15T02:10:26.545Z,0.75
2022-11-15T02:12:32.443Z,1.83
2022-11-15T02:14:36.225Z,2.15
2022-11-15T02:16:50.460Z,1.95
2022-11-15T02:19:03.623Z,1.90
2022-11-15T02:21:23.502Z,2.05
2022-11-15T02:23:34.602Z,2.92
2022-11-15T02:25:39.806Z,1.80
2022-11-15T02:27:59.793Z,1.58
2022-11-15T02:30:20.219Z,1.95
2022-11-15T02:32:27.773Z,1.00
2022-11-15T02:34:49.696Z,1.17
2022-11-15T02:37:00.023Z,1.63
2022-11-15T02:39:09.633Z,1.58
2022-11-15T02:41:40.497Z,1.65
2022-11-15T02:43:59.083Z,1.30
2022-11-15T02:46:07.014Z,1.75
2022-11-15T02:48:10.116Z,1.98
2022-11-15T02:50:12.854Z,1.40
2022-11-15T02:52:17.975Z,1.50
2022-11-15T02:54:22.385Z,1.45
2022-11-15T02:56:23.834Z,1.45
2022-11-15T02:58:43.644Z,1.38
2022-11-15T03:00:50.886Z,1.13
2022-11-15T03:03:10.909Z,1.75
2022-11-15T03:05:30.981Z,1.05
2022-11-15T03:07:45.369Z,1.50
2022-11-15T03:09:46.758Z,1.40
2022-11-15T03:11:50.841Z,1.60
2022-11-15T03:14:03.699Z,1.15
2022-11-15T03:16:12.602Z,2.05
2022-11-15T03:18:21.521Z,2.17
2022-11-15T03:20:23.489Z,2.70
2022-11-15T03:22:27.456Z,1.45
2022-11-15T03:24:30.535Z,1.83
2022-11-15T03:26:33.109Z,1.60
2022-11-15T03:28:57.565Z,1.67
2022-11-15T03:30:59.893Z,1.08
2022-11-15T03:33:03.011Z,1.10
2022-11-15T03:35:12.846Z,1.40
2022-11-15T03:37:15.655Z,1.63
2022-11-15T03:39:20.541Z,1.20
2022-11-15T03:41:29.135Z,1.98
2022-11-15T03:43:40.836Z,1.80
2022-11-15T03:45:47.769Z,1.10
2022-11-15T03:48:04.201Z,1.67
2022-11-15T03:50:08.577Z,1.40
2022-11-15T03:52:11.233Z,1.30
2022-11-15T03:54:13.760Z,1.50
2022-11-15T03:56:15.161Z,1.13
2022-11-15T03:58:16.681Z,1.42
2022-11-15T04:00:18.236Z,1.38
2022-11-15T04:02:19.704Z,2.25
2022-11-15T04:04:21.174Z,1.50
2022-11-15T04:06:22.829Z,1.13
2022-11-15T04:08:24.273Z,1.25
2022-11-15T04:10:25.735Z,0.98
2022-11-15T04:12:33.187Z,1.13
2022-11-15T04:14:34.698Z,0.90
2022-11-15T04:16:40.904Z,1.40
2022-11-15T04:18:45.142Z,1.50
2022-11-15T04:21:05.033Z,1.10
2022-11-15T04:23:26.439Z,3.30
2022-11-15T04:25:32.085Z,1.30
2022-11-15T04:27:33.916Z,1.70
2022-11-15T04:29:35.418Z,1.85
2022-11-15T04:31:36.815Z,1.63
2022-11-15T04:33:38.218Z,2.38
2022-11-15T04:35:39.952Z,3.17
2022-11-15T04:37:46.450Z,1.35
2022-11-15T04:39:50.669Z,2.20
2022-11-15T04:41:52.092Z,2.35
2022-11-15T04:43:53.647Z,1.65
2022-11-15T04:45:55.098Z,1.58
2022-11-15T04:47:56.567Z,1.85
2022-11-15T04:49:57.977Z,3.13
2022-11-15T04:51:59.487Z,1.73
2022-11-15T04:54:00.971Z,2.00
2022-11-15T04:56:03.740Z,1.90
2022-11-15T04:58:14.925Z,1.40
2022-11-15T05:00:25.468Z,3.13
2022-11-15T05:02:54.652Z,1.95
2022-11-15T05:05:03.576Z,1.80
2022-11-15T05:07:13.084Z,1.50
2022-11-15T05:09:22.019Z,1.70
2022-11-15T05:11:31.079Z,2.17
2022-11-15T05:13:40.449Z,1.98
2022-11-15T05:15:49.958Z,2.22
2022-11-15T05:18:02.351Z,2.63
2022-11-15T05:20:13.197Z,2.42
2022-11-15T05:22:16.445Z,2.10
2022-11-15T05:24:17.905Z,1.90
2022-11-15T05:26:19.512Z,1.63
2022-11-15T05:28:20.962Z,1.38
2022-11-15T05:30:22.406Z,1.42
2022-11-15T05:32:24.530Z,2.20
2022-11-15T05:34:26.638Z,2.30
2022-11-15T05:36:28.222Z,2.20
2022-11-15T05:38:29.690Z,1.42
2022-11-15T05:40:31.536Z,1.45
2022-11-15T05:42:32.945Z,1.58
2022-11-15T05:44:35.113Z,2.03
2022-11-15T05:46:38.221Z,1.90
2022-11-15T05:48:41.832Z,1.50
2022-11-15T05:50:45.320Z,1.67
2022-11-15T05:52:47.190Z,1.40
2022-11-15T05:54:48.784Z,1.25
2022-11-15T05:56:50.293Z,1.90
2022-11-15T05:58:58.156Z,1.60
2022-11-15T06:01:01.259Z,1.50
2022-11-15T06:03:02.794Z,1.27
2022-11-15T06:05:04.441Z,1.42
2022-11-15T06:07:05.897Z,2.03
2022-11-15T06:09:07.603Z,1.52
2022-11-15T06:11:09.259Z,1.73
2022-11-15T06:13:10.690Z,0.93
2022-11-15T06:15:12.197Z,1.85
2022-11-15T06:17:13.702Z,1.92
2022-11-15T06:19:15.191Z,0.90
2022-11-15T06:21:16.645Z,1.20
2022-11-15T06:23:18.137Z,0.80
2022-11-15T06:25:19.760Z,1.17
2022-11-15T06:27:21.174Z,1.23
2022-11-15T06:29:22.669Z,1.20
2022-11-15T06:31:24.094Z,1.55
2022-11-15T06:33:25.630Z,2.30
2022-11-15T06:35:27.110Z,1.45
2022-11-15T06:37:28.549Z,2.03
2022-11-15T06:39:30.049Z,1.45
2022-11-15T06:41:31.497Z,1.67
2022-11-15T06:43:33.313Z,2.38
2022-11-15T06:45:35.116Z,1.90
2022-11-15T06:47:36.557Z,3.33
2022-11-15T06:49:37.994Z,3.17
2022-11-15T06:51:39.447Z,2.22
2022-11-15T06:53:41.045Z,2.95
2022-11-15T06:55:42.557Z,2.15
2022-11-15T06:57:48.216Z,1.70
2022-11-15T06:59:49.681Z,2.40
2022-11-15T07:01:51.260Z,1.70
2022-11-15T07:03:53.012Z,1.45
2022-11-15T07:05:55.613Z,2.28
2022-11-15T07:07:58.332Z,1.42
2022-11-15T07:09:59.744Z,2.25
2022-11-15T07:12:07.262Z,2.08
2022-11-15T07:14:09.439Z,2.13
2022-11-15T07:16:11.518Z,2.40
2022-11-15T07:18:12.943Z,2.53
2022-11-15T07:20:14.493Z,2.25
2022-11-15T07:22:15.930Z,2.05
2022-11-15T07:24:17.385Z,2.30
2022-11-15T07:26:18.821Z,2.97
2022-11-15T07:28:20.326Z,2.80
2022-11-15T07:30:21.819Z,2.15
2022-11-15T07:32:23.246Z,2.10
2022-11-15T07:34:24.851Z,2.78
2022-11-15T07:36:26.293Z,2.35
2022-11-15T07:38:28.605Z,2.65
2022-11-15T07:40:31.050Z,2.38
2022-11-15T07:42:51.275Z,2.60
2022-11-15T07:44:52.721Z,1.55
2022-11-15T07:46:54.169Z,2.03
2022-11-15T07:48:55.649Z,2.17
2022-11-15T07:50:57.226Z,2.65
2022-11-15T07:52:59.284Z,1.80
2022-11-15T07:55:00.821Z,1.30
2022-11-15T07:57:06.856Z,1.88
2022-11-15T07:59:08.781Z,2.65
2022-11-15T08:01:12.843Z,2.08
2022-11-15T08:03:22.512Z,2.85
2022-11-15T08:05:33.699Z,1.80
2022-11-15T08:07:41.335Z,2.22
2022-11-15T08:09:48.660Z,2.03
2022-11-15T08:11:57.650Z,3.40
2022-11-15T08:14:06.585Z,2.00
2022-11-15T08:16:16.725Z,2.22
2022-11-15T08:18:25.857Z,3.00
2022-11-15T08:20:35.511Z,3.15
2022-11-15T08:22:45.762Z,1.92
2022-11-15T08:24:55.344Z,1.70
2022-11-15T08:27:05.622Z,4.18
2022-11-15T08:29:11.297Z,2.90
2022-11-15T08:31:17.755Z,3.17
2022-11-15T08:33:19.254Z,2.20
2022-11-15T08:35:24.896Z,4.07
2022-11-15T08:37:30.158Z,2.28
2022-11-15T08:39:31.797Z,2.65
2022-11-15T08:41:36.809Z,2.78
2022-11-15T08:43:38.323Z,1.83
2022-11-15T08:45:39.839Z,2.25
2022-11-15T08:47:41.410Z,2.15
2022-11-15T08:49:42.860Z,1.60
2022-11-15T08:51:44.327Z,2.03
2022-11-15T08:53:46.194Z,1.45
2022-11-15T08:55:47.806Z,1.88
2022-11-15T08:57:49.351Z,2.38
2022-11-15T08:59:51.104Z,1.70
2022-11-15T09:01:52.682Z,1.02
2022-11-15T09:03:54.759Z,1.90
2022-11-15T09:06:00.056Z,1.60
2022-11-15T09:08:06.564Z,1.80
2022-11-15T09:10:15.407Z,2.30
2022-11-15T09:12:16.965Z,1.90
2022-11-15T09:14:18.645Z,1.80
2022-11-15T09:16:20.485Z,1.67
2022-11-15T09:18:23.695Z,1.60
2022-11-15T09:20:25.192Z,2.80
2022-11-15T09:22:26.783Z,2.03
2022-11-15T09:24:28.295Z,1.55
2022-11-15T09:26:29.845Z,1.95
2022-11-15T09:28:32.018Z,2.13
2022-11-15T09:30:33.748Z,2.70
2022-11-15T09:32:39.280Z,1.75
2022-11-15T09:34:41.066Z,2.40
2022-11-15T09:36:42.522Z,1.98
2022-11-15T09:38:44.417Z,1.52
2022-11-15T09:40:46.932Z,2.42
2022-11-15T09:43:04.219Z,2.22
2022-11-15T09:45:34.715Z,1.95
2022-11-15T09:47:56.355Z,2.40
2022-11-15T09:49:59.664Z,1.88
2022-11-15T09:52:01.684Z,3.42
2022-11-15T09:54:46.153Z,2.30
2022-11-15T09:56:36.427Z,2.83
2022-11-15T09:58:41.453Z,3.08
2022-11-15T10:00:47.517Z,2.85
2022-11-15T10:03:05.360Z,2.50
2022-11-15T10:05:10.525Z,2.58
2022-11-15T10:07:17.284Z,3.30
2022-11-15T10:09:42.033Z,3.03
2022-11-15T10:11:43.600Z,2.42
2022-11-15T10:13:47.221Z,2.47
2022-11-15T10:15:49.492Z,2.63
2022-11-15T10:18:05.533Z,2.25
2022-11-15T10:20:27.741Z,2.75
2022-11-15T10:22:45.912Z,3.65
2022-11-15T10:24:48.945Z,2.75
2022-11-15T10:26:51.098Z,2.92
2022-11-15T10:28:52.529Z,3.90
2022-11-15T10:30:55.312Z,2.80
2022-11-15T10:32:56.996Z,3.47
2022-11-15T10:34:58.419Z,2.15
2022-11-15T10:37:00.406Z,2.85
2022-11-15T10:39:01.885Z,3.13
2022-11-15T10:41:08.472Z,2.13
2022-11-15T10:43:09.869Z,2.35
2022-11-15T10:45:24.078Z,3.05
2022-11-15T10:47:27.557Z,2.53
2022-11-15T10:49:30.111Z,3.28
2022-11-15T10:51:32.070Z,3.30
2022-11-15T10:53:39.344Z,2.80
2022-11-15T10:55:41.624Z,4.25
2022-11-15T10:57:49.458Z,2.97
2022-11-15T10:59:53.261Z,3.63
2022-11-15T11:01:54.995Z,3.50
2022-11-15T11:04:07.393Z,3.03
2022-11-15T11:06:11.179Z,4.43
2022-11-15T11:08:14.839Z,5.28
2022-11-15T11:10:49.761Z,4.05
2022-11-15T11:12:45.151Z,3.28
2022-11-15T11:14:47.475Z,3.20
2022-11-15T11:16:53.916Z,2.75
2022-11-15T11:19:05.964Z,2.63
2022-11-15T11:21:15.381Z,3.33
2022-11-15T11:23:24.018Z,2.28
2022-11-15T11:25:31.983Z,1.50
2022-11-15T11:27:59.628Z,0.95
2022-11-15T11:30:01.735Z,0.60
2022-11-15T11:32:10.078Z,1.00
2022-11-15T11:34:30.774Z,0.73
2022-11-15T11:36:35.496Z,0.70
2022-11-15T11:38:42.941Z,0.63
2022-11-15T11:40:46.465Z,0.40
2022-11-15T11:43:02.755Z,0.52
2022-11-15T11:45:19.732Z,0.30
2022-11-15T11:47:25.660Z,0.30
2022-11-15T11:49:50.576Z,0.28
2022-11-15T11:53:56.341Z,0.30
2022-11-15T11:56:00.177Z,0.20
2022-11-15T11:58:13.782Z,0.17
2022-11-15T12:00:20.092Z,0.20
2022-11-15T12:02:34.861Z,0.15
2022-11-15T12:04:39.131Z,0.17
2022-11-15T12:06:48.864Z,0.40
2022-11-15T12:08:53.672Z,0.28
2022-11-15T12:11:08.718Z,0.20
2022-11-15T12:13:12.730Z,0.20
2022-11-15T12:17:17.262Z,0.28
2022-11-15T12:19:18.820Z,0.50
2022-11-15T12:21:39.637Z,0.40
2022-11-15T12:23:46.936Z,0.40
2022-11-15T12:25:48.365Z,0.60
2022-11-15T12:27:49.801Z,0.57
2022-11-15T12:29:53.636Z,0.35
2022-11-15T12:32:01.112Z,0.40
2022-11-15T12:34:07.313Z,0.43
2022-11-15T12:36:13.762Z,0.68
2022-11-15T12:38:36.206Z,0.43
2022-11-15T12:40:39.141Z,0.40
2022-11-15T12:42:42.549Z,0.20
2022-11-15T12:44:43.979Z,0.30
2022-11-15T12:46:45.637Z,0.55
2022-11-15T12:48:48.807Z,0.20
2022-11-15T12:50:56.097Z,0.50
2022-11-15T12:53:16.049Z,0.28
2022-11-15T12:55:30.756Z,0.30
2022-11-15T12:57:34.164Z,0.15
2022-11-15T12:59:56.234Z,0.20
2022-11-15T13:01:58.632Z,0.30
2022-11-15T13:04:19.202Z,0.20
2022-11-15T13:06:39.600Z,0.30
2022-11-15T13:08:44.845Z,0.20
2022-11-15T13:10:46.400Z,0.30
2022-11-15T13:12:47.919Z,0.50
2022-11-15T13:14:53.604Z,0.52
2022-11-15T13:17:00.928Z,0.50
2022-11-15T13:19:03.080Z,0.90
2022-11-15T13:21:28.823Z,0.45
2022-11-15T13:23:30.557Z,0.50
2022-11-15T13:25:50.870Z,0.20
2022-11-15T13:27:52.498Z,0.40
2022-11-15T13:29:54.200Z,0.30
2022-11-15T13:31:56.636Z,0.20
2022-11-15T13:34:00.845Z,0.20
2022-11-15T13:36:04.363Z,0.22
2022-11-15T13:38:06.031Z,0.20
2022-11-15T13:40:12.218Z,0.75
2022-11-15T13:42:17.942Z,0.30
2022-11-15T13:44:20.662Z,0.25
2022-11-15T13:46:27.142Z,0.38
2022-11-15T13:48:30.548Z,0.40
2022-11-15T13:50:34.630Z,0.45
2022-11-15T13:52:38.202Z,0.30
2022-11-15T13:54:55.045Z,0.35
2022-11-15T13:56:59.360Z,0.40
2022-11-15T13:59:01.633Z,0.90
2022-11-15T14:01:04.896Z,0.50
2022-11-15T14:03:15.171Z,0.55
2022-11-15T14:05:18.013Z,0.50
2022-11-15T14:07:21.432Z,0.70
2022-11-15T14:09:35.176Z,0.90
2022-11-15T14:11:39.577Z,0.60
2022-11-15T14:14:07.841Z,0.40
2022-11-15T14:16:31.501Z,0.40
2022-11-15T14:18:48.927Z,0.90
2022-11-15T14:21:08.250Z,0.80
2022-11-15T14:23:22.223Z,0.60
2022-11-15T14:25:28.056Z,0.60
2022-11-15T14:27:32.787Z,0.73
2022-11-15T14:29:34.864Z,1.08
2022-11-15T14:31:44.195Z,1.40
2022-11-15T14:33:49.364Z,0.70
2022-11-15T14:36:01.841Z,0.88
2022-11-15T14:38:15.156Z,0.50
2022-11-15T14:40:26.954Z,0.70
2022-11-15T14:42:40.222Z,0.65
2022-11-15T14:44:47.756Z,0.52
2022-11-15T14:47:08.680Z,0.60
2022-11-15T14:49:26.375Z,0.90
2022-11-15T14:51:36.347Z,0.85
2022-11-15T14:53:42.395Z,0.73
2022-11-15T14:55:45.038Z,0.80
2022-11-15T14:57:46.723Z,1.58
2022-11-15T14:59:48.278Z,0.60
2022-11-15T15:01:49.778Z,0.88
2022-11-15T15:03:53.184Z,0.70
2022-11-15T15:05:55.353Z,0.77
2022-11-15T15:07:57.051Z,0.85
2022-11-15T15:10:17.744Z,0.68
2022-11-15T15:12:24.104Z,1.17
2022-11-15T15:14:25.887Z,0.73
2022-11-15T15:16:28.232Z,0.70
2022-11-15T15:18:29.855Z,0.70
2022-11-15T15:20:32.548Z,0.30
2022-11-15T15:22:34.125Z,0.60
2022-11-15T15:24:35.637Z,0.50
2022-11-15T15:26:39.045Z,1.17
2022-11-15T15:28:41.340Z,0.50
2022-11-15T15:30:43.298Z,0.35
2022-11-15T15:32:45.082Z,0.35
2022-11-15T15:34:46.753Z,0.35
2022-11-15T15:36:48.475Z,0.80
2022-11-15T15:38:49.944Z,1.10
2022-11-15T15:40:51.760Z,0.73
2022-11-15T15:42:53.349Z,0.80
2022-11-15T15:44:54.779Z,1.17
2022-11-15T15:46:56.322Z,0.80
2022-11-15T15:48:57.914Z,0.57
2022-11-15T15:50:59.508Z,0.50
2022-11-15T15:53:02.089Z,0.60
2022-11-15T15:55:03.624Z,0.40
2022-11-15T15:57:05.981Z,0.38
2022-11-15T15:59:07.478Z,0.40
2022-11-15T16:01:09.508Z,0.28
2022-11-15T16:03:11.148Z,1.20
2022-11-15T16:05:13.079Z,0.50
2022-11-15T16:07:18.742Z,0.30
2022-11-15T16:09:40.527Z,0.40
2022-11-15T16:11:47.888Z,0.38
2022-11-15T16:13:50.328Z,0.60
2022-11-15T16:15:53.849Z,0.20
2022-11-15T16:17:56.507Z,0.30
2022-11-15T16:19:58.067Z,0.52
2022-11-15T16:21:59.641Z,0.52
2022-11-15T16:24:01.287Z,0.50
2022-11-15T16:26:04.133Z,0.52
2022-11-15T16:28:10.227Z,0.73
2022-11-15T16:30:15.083Z,0.55
2022-11-15T16:32:20.770Z,0.30
2022-11-15T16:34:23.578Z,0.57
2022-11-15T16:36:30.352Z,0.60
2022-11-15T16:38:32.950Z,0.40
2022-11-15T16:40:36.103Z,0.88
2022-11-15T16:42:37.529Z,0.60
2022-11-15T16:44:38.968Z,1.17
2022-11-15T16:46:42.339Z,0.80
2022-11-15T16:48:43.793Z,0.47
2022-11-15T16:50:46.349Z,0.40
2022-11-15T16:52:48.072Z,0.60
2022-11-15T16:54:49.474Z,0.38
2022-11-15T16:56:51.078Z,0.70
2022-11-15T16:58:54.725Z,0.30
2022-11-15T17:00:57.071Z,0.90
2022-11-15T17:02:59.374Z,1.95
2022-11-15T17:05:05.626Z,0.40
2022-11-15T17:07:10.063Z,0.40
2022-11-15T17:09:15.965Z,0.32
2022-11-15T17:11:21.656Z,0.35
2022-11-15T17:13:23.185Z,0.20
2022-11-15T17:15:25.705Z,0.30
2022-11-15T17:17:27.223Z,0.13
2022-11-15T17:19:29.716Z,0.80
2022-11-15T17:21:37.380Z,0.88
2022-11-15T17:23:44.348Z,0.50
2022-11-15T17:25:48.310Z,0.90
2022-11-15T17:27:56.068Z,0.60
2022-11-15T17:30:01.803Z,0.50
2022-11-15T17:32:05.542Z,0.90
2022-11-15T17:34:12.618Z,0.30
2022-11-15T17:36:23.905Z,0.70
2022-11-15T17:38:32.001Z,0.40
2022-11-15T17:40:40.997Z,0.20
2022-11-15T17:42:53.583Z,0.50
2022-11-15T17:45:09.575Z,0.35
2022-11-15T17:47:18.108Z,1.35
2022-11-15T17:49:29.420Z,0.50
2022-11-15T17:51:44.995Z,0.65
2022-11-15T17:53:56.889Z,0.90
2022-11-15T17:56:10.009Z,0.85
2022-11-15T17:58:13.049Z,0.85
2022-11-15T18:00:15.382Z,1.20
2022-11-15T18:02:17.116Z,0.93
2022-11-15T18:04:18.828Z,0.90
2022-11-15T18:06:21.205Z,0.57
2022-11-15T18:08:23.977Z,0.85
2022-11-15T18:10:25.590Z,0.93
2022-11-15T18:12:27.717Z,0.55
2022-11-15T18:14:29.246Z,0.40
2022-11-15T18:16:31.810Z,0.50
2022-11-15T18:18:34.374Z,0.50
2022-11-15T18:20:36.238Z,0.30
2022-11-15T18:22:37.866Z,0.40
2022-11-15T18:24:39.481Z,0.50
2022-11-15T18:26:40.988Z,0.35
2022-11-15T18:28:43.922Z,0.20
2022-11-15T18:30:45.980Z,0.40
2022-11-15T18:32:48.285Z,0.40
2022-11-15T18:34:49.813Z,0.22
2022-11-15T18:36:52.837Z,0.20
2022-11-15T18:38:55.564Z,0.13
2022-11-15T18:41:08.490Z,0.10
2022-11-15T18:43:10.517Z,0.20
2022-11-15T18:45:14.142Z,0.40
2022-11-15T18:47:15.564Z,0.30
2022-11-15T18:49:19.690Z,0.50
2022-11-15T18:53:23.934Z,0.57
2022-11-15T18:55:25.413Z,0.63
2022-11-15T18:57:27.014Z,0.50
2022-11-15T18:59:29.362Z,0.80
2022-11-15T19:01:31.020Z,0.80
2022-11-15T19:03:34.696Z,1.00
2022-11-15T19:05:36.415Z,0.90
2022-11-15T19:07:38.191Z,1.00
2022-11-15T19:09:39.706Z,0.77
2022-11-15T19:11:41.488Z,0.75
2022-11-15T19:13:43.426Z,1.10
2022-11-15T19:15:44.940Z,0.77
2022-11-15T19:17:46.486Z,0.98
2022-11-15T19:19:47.894Z,1.33
2022-11-15T19:21:50.089Z,0.65
2022-11-15T19:23:54.249Z,0.45
2022-11-15T19:26:00.419Z,0.50
2022-11-15T19:28:03.828Z,0.40
2022-11-15T19:30:05.738Z,0.50
2022-11-15T19:32:07.635Z,0.45
2022-11-15T19:34:09.490Z,0.20
2022-11-15T19:36:37.761Z,0.30
2022-11-15T19:38:40.371Z,0.20
2022-11-15T19:40:42.164Z,0.30
2022-11-15T19:42:43.606Z,0.30
2022-11-15T19:44:45.203Z,0.30
2022-11-15T19:46:46.679Z,0.60
2022-11-15T19:48:48.703Z,0.90
2022-11-15T19:50:50.487Z,0.50
2022-11-15T19:52:52.162Z,0.73
2022-11-15T19:54:53.553Z,0.38
2022-11-15T19:56:55.307Z,0.35
2022-11-15T19:58:57.266Z,0.43
2022-11-15T20:01:18.585Z,0.40
2022-11-15T20:03:20.387Z,0.40
2022-11-15T20:05:21.871Z,0.35
2022-11-15T20:07:23.586Z,0.30
2022-11-15T20:09:26.940Z,0.32
2022-11-15T20:11:28.796Z,0.37
2022-11-15T20:13:30.851Z,0.30
2022-11-15T20:15:33.740Z,0.40
2022-11-15T20:17:35.306Z,0.50
2022-11-15T20:19:38.320Z,0.60
2022-11-15T20:21:43.235Z,0.73
2022-11-15T20:23:48.672Z,0.68
2022-11-15T20:25:53.478Z,0.65
2022-11-15T20:28:04.412Z,0.95
2022-11-15T20:30:23.102Z,0.57
2022-11-15T20:32:40.281Z,0.40
2022-11-15T20:34:56.999Z,0.20
2022-11-15T20:37:09.813Z,0.40
2022-11-15T20:39:23.274Z,0.38
2022-11-15T20:41:34.122Z,0.60
2022-11-15T20:43:43.933Z,0.20
2022-11-15T20:45:48.925Z,0.60
2022-11-15T20:48:02.151Z,0.20
2022-11-15T20:50:41.036Z,0.40
2022-11-15T20:52:53.623Z,0.40
2022-11-15T20:55:06.811Z,0.45
2022-11-15T20:57:19.208Z,0.30
2022-11-15T20:59:32.784Z,0.40
2022-11-15T21:01:41.771Z,0.60
2022-11-15T21:03:53.795Z,0.40
2022-11-15T21:05:58.710Z,0.40
2022-11-15T21:08:00.123Z,0.40
2022-11-15T21:10:20.753Z,0.30
2022-11-15T21:12:23.135Z,0.20
2022-11-15T21:14:24.643Z,0.15
2022-11-15T21:16:26.203Z,0.30
2022-11-15T21:18:28.537Z,0.10
2022-11-15T21:20:30.724Z,0.10
2022-11-15T21:22:33.744Z,0.10
2022-11-15T21:24:36.348Z,0.50
2022-11-15T21:26:38.237Z,0.30
2022-11-15T21:28:39.975Z,0.20
2022-11-15T21:30:41.476Z,0.30
2022-11-15T21:32:45.814Z,0.30
2022-11-15T21:34:49.250Z,0.25
2022-11-15T21:36:51.649Z,0.20
2022-11-15T21:38:53.696Z,0.10
2022-11-15T21:40:55.314Z,0.32
2022-11-15T21:42:56.724Z,0.30
2022-11-15T21:44:58.204Z,0.20
2022-11-15T21:47:00.295Z,0.22
2022-11-15T21:49:01.852Z,0.50
2022-11-15T21:51:07.387Z,0.40
2022-11-15T21:53:09.244Z,0.50
2022-11-15T21:55:10.827Z,0.98
2022-11-15T21:57:12.712Z,0.65
2022-11-15T21:59:14.453Z,0.85
2022-11-15T22:01:34.620Z,0.70
2022-11-15T22:03:36.193Z,1.15
2022-11-15T22:05:38.751Z,1.25
2022-11-15T22:07:40.368Z,1.20
2022-11-15T22:09:41.937Z,0.88
2022-11-15T22:11:43.364Z,0.60
2022-11-15T22:13:44.841Z,1.10
2022-11-15T22:15:46.655Z,0.60
2022-11-15T22:18:00.159Z,1.08
2022-11-15T22:20:11.605Z,0.73
2022-11-15T22:22:23.967Z,0.55
2022-11-15T22:24:25.857Z,0.60
2022-11-15T22:26:27.744Z,0.63
2022-11-15T22:28:30.451Z,0.40
2022-11-15T22:30:32.475Z,0.30
2022-11-15T22:32:34.157Z,0.30
2022-11-15T22:34:35.577Z,0.28
2022-11-15T22:36:58.488Z,0.20
2022-11-15T22:38:59.272Z,0.10
2022-11-15T22:41:00.982Z,0.40
2022-11-15T22:43:02.571Z,0.10
2022-11-15T22:45:04.298Z,0.10
2022-11-15T22:47:06.481Z,0.28
2022-11-15T22:49:24.587Z,0.10
2022-11-15T22:51:53.886Z,0.20
2022-11-15T22:54:29.504Z,0.30
2022-11-15T22:56:54.889Z,0.30
2022-11-15T22:59:21.800Z,0.40
2022-11-15T23:01:56.642Z,0.40
2022-11-15T23:04:16.821Z,0.30
2022-11-15T23:06:42.567Z,0.20
2022-11-15T23:09:09.099Z,0.20
2022-11-15T23:11:54.306Z,0.20
2022-11-15T23:14:25.059Z,0.17
2022-11-15T23:17:00.060Z,0.10
2022-11-15T23:19:34.657Z,0.10
2022-11-15T23:22:11.619Z,0.00
2022-11-15T23:24:44.696Z,0.10
2022-11-15T23:27:15.041Z,0.00
2022-11-15T23:29:30.325Z,0.10
2022-11-15T23:32:03.173Z,0.00
2022-11-15T23:34:07.941Z,0.10
2022-11-15T23:36:09.626Z,0.13
2022-11-15T23:38:11.113Z,0.00
2022-11-15T23:40:12.756Z,0.10
2022-11-15T23:42:20.000Z,0.10
2022-11-15T23:44:21.806Z,0.10
2022-11-15T23:46:23.295Z,0.00
2022-11-15T23:48:25.007Z,0.10
2022-11-15T23:50:26.453Z,0.00
2022-11-15T23:52:27.961Z,0.10
2022-11-15T23:54:30.647Z,0.10
2022-11-15T23:56:32.476Z,0.10
2022-11-15T23:58:34.219Z,0.10
